createdAt,value
2023-02-06T00:00:50.815Z,13.76
2023-02-06T00:01:50.792Z,13.86
2023-02-06T00:02:50.784Z,13.76
2023-02-06T00:03:50.789Z,13.86
2023-02-06T00:04:50.781Z,13.76
2023-02-06T00:05:50.883Z,13.86
2023-02-06T00:06:50.779Z,13.76
2023-02-06T00:07:50.784Z,13.47
2023-02-06T00:08:50.781Z,13.86
2023-02-06T00:09:50.783Z,13.76
2023-02-06T00:10:50.789Z,13.76
2023-02-06T00:11:50.787Z,13.57
2023-02-06T00:12:50.774Z,13.57
2023-02-06T00:13:50.778Z,13.76
2023-02-06T00:14:50.770Z,13.76
2023-02-06T00:15:50.864Z,13.57
2023-02-06T00:16:50.769Z,13.76
2023-02-06T00:17:50.774Z,13.67
2023-02-06T00:18:50.765Z,13.76
2023-02-06T00:19:50.772Z,13.76
2023-02-06T00:20:50.766Z,13.76
2023-02-06T00:21:50.797Z,13.76
2023-02-06T00:22:50.760Z,13.76
2023-02-06T00:23:50.766Z,13.76
2023-02-06T00:24:50.759Z,13.67
2023-02-06T00:25:50.767Z,13.76
2023-02-06T00:26:50.756Z,13.76
2023-02-06T00:27:50.807Z,13.86
2023-02-06T00:28:50.783Z,13.86
2023-02-06T00:29:50.763Z,13.86
2023-02-06T00:30:50.882Z,13.76
2023-02-06T00:31:50.838Z,13.67
2023-02-06T00:32:50.835Z,13.86
2023-02-06T00:33:50.759Z,13.86
2023-02-06T00:34:50.752Z,13.67
2023-02-06T00:35:50.765Z,13.67
2023-02-06T00:36:50.758Z,13.86
2023-02-06T00:37:50.785Z,13.67
2023-02-06T00:38:50.753Z,13.57
2023-02-06T00:39:50.758Z,13.76
2023-02-06T00:40:50.748Z,13.76
2023-02-06T00:41:50.754Z,13.76
2023-02-06T00:42:50.749Z,13.86
2023-02-06T00:43:50.910Z,13.76
2023-02-06T00:44:50.745Z,13.67
2023-02-06T00:45:50.753Z,13.86
2023-02-06T00:46:50.742Z,13.67
2023-02-06T00:47:50.761Z,13.57
2023-02-06T00:48:50.741Z,13.67
2023-02-06T00:49:50.746Z,13.96
2023-02-06T00:50:50.749Z,13.67
2023-02-06T00:51:50.744Z,13.86
2023-02-06T00:52:50.735Z,13.76
2023-02-06T00:53:51.286Z,13.86
2023-02-06T00:54:50.733Z,13.86
2023-02-06T00:55:50.741Z,13.67
2023-02-06T00:56:50.731Z,13.67
2023-02-06T00:57:50.739Z,13.86
2023-02-06T00:58:50.734Z,13.67
2023-02-06T00:59:50.737Z,13.67
2023-02-06T01:00:50.733Z,13.86
2023-02-06T01:01:50.843Z,13.67
2023-02-06T01:02:50.743Z,13.67
2023-02-06T01:03:50.736Z,13.76
2023-02-06T01:04:50.724Z,13.76
2023-02-06T01:05:50.729Z,13.96
2023-02-06T01:06:50.719Z,13.86
2023-02-06T01:07:50.726Z,13.76
2023-02-06T01:08:50.720Z,13.86
2023-02-06T01:09:50.747Z,13.76
2023-02-06T01:10:50.721Z,13.76
2023-02-06T01:11:50.722Z,13.76
2023-02-06T01:12:50.719Z,13.86
2023-02-06T01:13:50.750Z,13.86
2023-02-06T01:14:50.759Z,13.86
2023-02-06T01:15:51.268Z,13.86
2023-02-06T01:16:50.708Z,13.86
2023-02-06T01:17:50.712Z,13.86
2023-02-06T01:18:50.720Z,13.76
2023-02-06T01:19:50.718Z,13.86
2023-02-06T01:20:50.726Z,13.86
2023-02-06T01:21:50.738Z,13.76
2023-02-06T01:22:50.710Z,13.76
2023-02-06T01:23:50.716Z,13.76
2023-02-06T01:24:50.707Z,13.67
2023-02-06T01:25:50.725Z,13.86
2023-02-06T01:26:50.707Z,13.86
2023-02-06T01:27:50.749Z,13.86
2023-02-06T01:28:50.719Z,13.86
2023-02-06T01:29:50.704Z,13.76
2023-02-06T01:30:50.846Z,13.86
2023-02-06T01:31:50.740Z,13.76
2023-02-06T01:32:50.730Z,13.76
2023-02-06T01:33:50.693Z,13.76
2023-02-06T01:34:50.733Z,13.86
2023-02-06T01:35:50.692Z,13.86
2023-02-06T01:36:50.723Z,13.86
2023-02-06T01:37:50.723Z,13.67
2023-02-06T01:38:50.687Z,13.86
2023-02-06T01:39:50.718Z,13.96
2023-02-06T01:40:50.723Z,13.86
2023-02-06T01:41:50.705Z,13.86
2023-02-06T01:42:50.685Z,13.86
2023-02-06T01:43:50.676Z,13.76
2023-02-06T01:44:50.705Z,13.86
2023-02-06T01:45:50.702Z,13.86
2023-02-06T01:46:50.757Z,13.86
2023-02-06T01:47:50.672Z,13.86
2023-02-06T01:48:50.678Z,13.86
2023-02-06T01:49:50.670Z,13.86
2023-02-06T01:50:50.718Z,13.86
2023-02-06T01:51:50.670Z,13.86
2023-02-06T01:52:50.675Z,13.86
2023-02-06T01:53:50.676Z,13.86
2023-02-06T01:54:50.673Z,13.86
2023-02-06T01:55:50.663Z,13.86
2023-02-06T01:56:50.671Z,13.86
2023-02-06T01:57:50.717Z,13.86
2023-02-06T01:58:50.670Z,13.86
2023-02-06T01:59:50.659Z,13.86
2023-02-06T02:00:50.695Z,13.86
2023-02-06T02:01:50.720Z,13.86
2023-02-06T02:02:50.664Z,13.86
2023-02-06T02:03:50.655Z,13.96
2023-02-06T02:04:50.663Z,13.96
2023-02-06T02:05:50.665Z,13.86
2023-02-06T02:06:50.669Z,13.86
2023-02-06T02:07:50.663Z,13.86
2023-02-06T02:08:50.658Z,13.96
2023-02-06T02:09:50.652Z,13.86
2023-02-06T02:10:50.656Z,13.76
2023-02-06T02:11:50.649Z,13.76
2023-02-06T02:12:50.655Z,13.76
2023-02-06T02:13:50.674Z,13.76
2023-02-06T02:14:50.653Z,13.86
2023-02-06T02:15:50.650Z,13.76
2023-02-06T02:16:50.655Z,13.76
2023-02-06T02:17:50.645Z,13.96
2023-02-06T02:18:50.651Z,13.86
2023-02-06T02:19:50.643Z,13.86
2023-02-06T02:20:50.653Z,13.76
2023-02-06T02:21:50.649Z,13.86
2023-02-06T02:22:50.650Z,13.96
2023-02-06T02:23:50.640Z,13.86
2023-02-06T02:24:50.646Z,13.86
2023-02-06T02:25:50.639Z,13.76
2023-02-06T02:26:50.646Z,13.76
2023-02-06T02:27:50.678Z,13.96
2023-02-06T02:28:50.644Z,13.96
2023-02-06T02:29:50.723Z,13.86
2023-02-06T02:30:50.657Z,13.86
2023-02-06T02:31:50.751Z,13.96
2023-02-06T02:32:50.657Z,13.76
2023-02-06T02:33:50.631Z,13.86
2023-02-06T02:34:50.647Z,13.86
2023-02-06T02:35:50.631Z,13.96
2023-02-06T02:36:50.638Z,13.86
2023-02-06T02:37:50.635Z,13.86
2023-02-06T02:38:50.642Z,13.86
2023-02-06T02:39:50.626Z,13.86
2023-02-06T02:40:50.635Z,13.86
2023-02-06T02:41:50.624Z,13.76
2023-02-06T02:42:50.631Z,13.96
2023-02-06T02:43:50.621Z,13.86
2023-02-06T02:44:50.650Z,13.86
2023-02-06T02:45:50.705Z,13.86
2023-02-06T02:46:50.624Z,13.86
2023-02-06T02:47:50.619Z,13.76
2023-02-06T02:48:50.620Z,13.76
2023-02-06T02:49:50.612Z,13.76
2023-02-06T02:50:50.617Z,13.76
2023-02-06T02:51:50.608Z,13.76
2023-02-06T02:52:50.614Z,13.86
2023-02-06T02:53:50.610Z,13.76
2023-02-06T02:54:50.624Z,13.86
2023-02-06T02:55:50.603Z,13.96
2023-02-06T02:56:50.613Z,13.96
2023-02-06T02:57:50.605Z,13.86
2023-02-06T02:58:50.609Z,13.86
2023-02-06T02:59:50.610Z,13.96
2023-02-06T03:00:50.654Z,13.96
2023-02-06T03:01:50.673Z,13.96
2023-02-06T03:02:50.603Z,13.76
2023-02-06T03:03:50.598Z,13.86
2023-02-06T03:04:50.608Z,13.86
2023-02-06T03:05:50.592Z,13.96
2023-02-06T03:06:50.604Z,13.86
2023-02-06T03:07:50.590Z,13.86
2023-02-06T03:08:50.605Z,13.76
2023-02-06T03:09:50.588Z,13.76
2023-02-06T03:10:50.593Z,13.86
2023-02-06T03:11:50.585Z,13.86
2023-02-06T03:12:50.591Z,13.86
2023-02-06T03:13:50.583Z,13.86
2023-02-06T03:14:50.589Z,13.86
2023-02-06T03:15:50.581Z,13.86
2023-02-06T03:16:50.590Z,13.86
2023-02-06T03:17:50.604Z,13.96
2023-02-06T03:18:50.586Z,13.76
2023-02-06T03:19:50.577Z,13.96
2023-02-06T03:20:50.584Z,13.96
2023-02-06T03:21:50.576Z,13.86
2023-02-06T03:22:50.587Z,13.86
2023-02-06T03:23:50.573Z,13.96
2023-02-06T03:24:50.579Z,13.86
2023-02-06T03:25:50.572Z,13.96
2023-02-06T03:26:50.580Z,13.86
2023-02-06T03:27:50.601Z,13.96
2023-02-06T03:28:50.576Z,13.86
2023-02-06T03:29:50.569Z,13.76
2023-02-06T03:30:50.607Z,13.96
2023-02-06T03:31:50.626Z,13.86
2023-02-06T03:32:50.573Z,13.86
2023-02-06T03:33:50.595Z,13.86
2023-02-06T03:34:50.570Z,13.86
2023-02-06T03:35:50.562Z,13.96
2023-02-06T03:36:50.569Z,13.86
2023-02-06T03:37:50.568Z,13.96
2023-02-06T03:38:50.571Z,13.96
2023-02-06T03:39:50.557Z,13.86
2023-02-06T03:40:50.562Z,13.96
2023-02-06T03:41:50.555Z,13.86
2023-02-06T03:42:50.559Z,13.86
2023-02-06T03:43:50.553Z,13.86
2023-02-06T03:44:50.562Z,13.86
2023-02-06T03:45:50.624Z,13.76
2023-02-06T03:46:50.556Z,13.96
2023-02-06T03:47:50.549Z,13.86
2023-02-06T03:48:50.553Z,13.96
2023-02-06T03:49:50.568Z,13.96
2023-02-06T03:50:50.552Z,13.86
2023-02-06T03:51:50.544Z,13.96
2023-02-06T03:52:50.565Z,13.76
2023-02-06T03:53:50.547Z,13.86
2023-02-06T03:54:50.550Z,13.86
2023-02-06T03:55:50.544Z,13.96
2023-02-06T03:56:50.549Z,13.86
2023-02-06T03:57:50.541Z,13.96
2023-02-06T03:58:50.548Z,13.86
2023-02-06T03:59:50.543Z,13.86
2023-02-06T04:00:50.549Z,13.96
2023-02-06T04:01:50.540Z,13.76
2023-02-06T04:02:50.544Z,13.96
2023-02-06T04:03:50.535Z,13.96
2023-02-06T04:04:50.555Z,13.86
2023-02-06T04:05:50.567Z,13.76
2023-02-06T04:06:50.540Z,13.76
2023-02-06T04:07:50.541Z,13.76
2023-02-06T04:08:50.555Z,13.96
2023-02-06T04:09:50.531Z,13.86
2023-02-06T04:10:50.535Z,13.76
2023-02-06T04:11:50.535Z,13.96
2023-02-06T04:12:50.539Z,13.86
2023-02-06T04:13:50.533Z,13.86
2023-02-06T04:14:50.535Z,13.96
2023-02-06T04:15:50.531Z,13.86
2023-02-06T04:16:50.555Z,13.86
2023-02-06T04:17:59.853Z,13.86
2023-02-06T04:18:50.529Z,13.86
2023-02-06T04:19:50.531Z,13.86
2023-02-06T04:20:50.528Z,13.96
2023-02-06T04:21:50.545Z,13.86
2023-02-06T04:22:50.538Z,13.86
2023-02-06T04:23:50.518Z,13.86
2023-02-06T04:24:50.523Z,13.76
2023-02-06T04:25:50.516Z,13.86
2023-02-06T04:26:50.524Z,13.86
2023-02-06T04:27:50.538Z,13.86
2023-02-06T04:28:50.519Z,13.86
2023-02-06T04:29:50.512Z,13.76
2023-02-06T04:30:50.654Z,13.76
2023-02-06T04:31:50.517Z,13.86
2023-02-06T04:32:50.514Z,13.76
2023-02-06T04:33:50.507Z,13.76
2023-02-06T04:34:50.518Z,13.76
2023-02-06T04:35:50.506Z,13.86
2023-02-06T04:36:50.509Z,13.76
2023-02-06T04:37:50.527Z,13.86
2023-02-06T04:38:50.507Z,13.86
2023-02-06T04:39:50.499Z,13.86
2023-02-06T04:40:50.506Z,13.76
2023-02-06T04:41:50.498Z,13.96
2023-02-06T04:42:50.513Z,13.86
2023-02-06T04:43:50.645Z,13.86
2023-02-06T04:44:50.503Z,13.76
2023-02-06T04:45:50.543Z,13.86
2023-02-06T04:46:50.499Z,13.76
2023-02-06T04:47:50.492Z,13.86
2023-02-06T04:48:50.496Z,13.86
2023-02-06T04:49:50.490Z,13.86
2023-02-06T04:50:50.495Z,13.76
2023-02-06T04:51:50.495Z,13.86
2023-02-06T04:52:50.493Z,13.76
2023-02-06T04:53:50.510Z,13.76
2023-02-06T04:54:50.489Z,13.76
2023-02-06T04:55:50.482Z,13.86
2023-02-06T04:56:50.489Z,13.86
2023-02-06T04:57:50.481Z,13.76
2023-02-06T04:58:50.489Z,13.86
2023-02-06T04:59:50.479Z,13.86
2023-02-06T05:00:50.488Z,13.86
2023-02-06T05:01:50.528Z,13.86
2023-02-06T05:02:50.563Z,13.86
2023-02-06T05:03:50.470Z,13.76
2023-02-06T05:04:50.482Z,13.76
2023-02-06T05:05:50.468Z,13.86
2023-02-06T05:06:50.473Z,13.86
2023-02-06T05:07:50.465Z,13.76
2023-02-06T05:08:50.471Z,13.96
2023-02-06T05:09:50.489Z,13.86
2023-02-06T05:10:50.467Z,13.76
2023-02-06T05:11:50.459Z,13.86
2023-02-06T05:12:50.466Z,13.86
2023-02-06T05:13:50.461Z,13.67
2023-02-06T05:14:50.462Z,13.86
2023-02-06T05:15:50.479Z,13.76
2023-02-06T05:16:50.462Z,13.67
2023-02-06T05:17:50.452Z,13.67
2023-02-06T05:18:50.458Z,13.57
2023-02-06T05:19:50.453Z,13.57
2023-02-06T05:20:50.457Z,13.47
2023-02-06T05:21:50.447Z,13.67
2023-02-06T05:22:50.455Z,13.57
2023-02-06T05:23:50.454Z,13.57
2023-02-06T05:24:50.457Z,13.67
2023-02-06T05:25:50.464Z,13.57
2023-02-06T05:26:50.450Z,13.57
2023-02-06T05:27:50.460Z,13.47
2023-02-06T05:28:50.453Z,13.28
2023-02-06T05:29:50.439Z,13.28
2023-02-06T05:30:50.558Z,13.57
2023-02-06T05:31:50.518Z,13.37
2023-02-06T05:32:50.444Z,13.47
2023-02-06T05:33:52.207Z,13.47
2023-02-06T05:34:50.441Z,13.09
2023-02-06T05:35:50.434Z,13.09
2023-02-06T05:36:50.437Z,13.09
2023-02-06T05:37:50.440Z,13.18
2023-02-06T05:38:50.440Z,13.28
2023-02-06T05:39:50.436Z,13.18
2023-02-06T05:40:50.428Z,13.28
2023-02-06T05:41:50.461Z,13.09
2023-02-06T05:42:50.425Z,13.18
2023-02-06T05:43:50.437Z,13.18
2023-02-06T05:44:50.425Z,12.99
2023-02-06T05:45:50.432Z,13.09
2023-02-06T05:46:50.422Z,12.99
2023-02-06T05:47:50.435Z,13.18
2023-02-06T05:48:50.422Z,13.28
2023-02-06T05:49:50.428Z,13.18
2023-02-06T05:50:50.422Z,13.18
2023-02-06T05:51:50.435Z,13.37
2023-02-06T05:52:50.421Z,13.37
2023-02-06T05:53:50.425Z,13.37
2023-02-06T05:54:50.414Z,13.28
2023-02-06T05:55:50.426Z,13.37
2023-02-06T05:56:50.417Z,13.18
2023-02-06T05:57:50.487Z,13.37
2023-02-06T05:58:50.413Z,13.28
2023-02-06T05:59:50.418Z,13.28
2023-02-06T06:00:50.410Z,13.28
2023-02-06T06:01:50.417Z,13.18
2023-02-06T06:02:50.408Z,13.28
2023-02-06T06:03:50.493Z,12.99
2023-02-06T06:04:50.442Z,13.18
2023-02-06T06:05:50.416Z,12.79
2023-02-06T06:06:50.404Z,13.28
2023-02-06T06:07:50.412Z,13.18
2023-02-06T06:08:50.408Z,13.37
2023-02-06T06:09:50.414Z,13.18
2023-02-06T06:10:50.401Z,13.28
2023-02-06T06:11:50.410Z,13.18
2023-02-06T06:12:50.400Z,13.18
2023-02-06T06:13:50.436Z,13.37
2023-02-06T06:14:50.401Z,13.28
2023-02-06T06:15:50.441Z,13.28
2023-02-06T06:16:50.396Z,13.28
2023-02-06T06:17:50.401Z,13.18
2023-02-06T06:18:50.392Z,13.28
2023-02-06T06:19:50.401Z,13.37
2023-02-06T06:20:50.392Z,13.37
2023-02-06T06:21:50.397Z,14.25
2023-02-06T06:22:50.388Z,13.96
2023-02-06T06:23:50.397Z,13.09
2023-02-06T06:24:50.387Z,13.09
2023-02-06T06:25:50.393Z,13.18
2023-02-06T06:26:50.384Z,13.18
2023-02-06T06:27:50.426Z,13.18
2023-02-06T06:28:50.381Z,13.18
2023-02-06T06:29:50.418Z,13.18
2023-02-06T06:30:50.454Z,13.28
2023-02-06T06:31:50.473Z,12.99
2023-02-06T06:32:50.377Z,13.18
2023-02-06T06:33:50.388Z,12.99
2023-02-06T06:34:50.378Z,12.99
2023-02-06T06:35:50.381Z,13.09
2023-02-06T06:36:50.375Z,13.18
2023-02-06T06:37:50.380Z,13.28
2023-02-06T06:38:51.872Z,13.28
2023-02-06T06:39:50.375Z,13.37
2023-02-06T06:40:50.376Z,13.18
2023-02-06T06:41:50.375Z,13.09
2023-02-06T06:42:50.367Z,13.28
2023-02-06T06:43:51.582Z,13.28
2023-02-06T06:44:50.372Z,12.99
2023-02-06T06:45:50.433Z,12.99
2023-02-06T06:46:50.363Z,12.79
2023-02-06T06:47:50.380Z,13.09
2023-02-06T06:48:50.361Z,12.70
2023-02-06T06:49:50.368Z,14.34
2023-02-06T06:50:50.362Z,13.76
2023-02-06T06:51:50.366Z,13.18
2023-02-06T06:52:50.371Z,13.18
2023-02-06T06:53:50.362Z,12.89
2023-02-06T06:54:51.989Z,12.90
2023-02-06T06:55:50.361Z,13.19
2023-02-06T06:56:50.363Z,13.09
2023-02-06T06:57:50.359Z,13.29
2023-02-06T06:58:50.351Z,13.19
2023-02-06T06:59:50.362Z,12.90
2023-02-06T07:00:50.386Z,12.70
2023-02-06T07:01:50.382Z,12.90
2023-02-06T07:02:50.383Z,12.79
2023-02-06T07:03:50.354Z,12.90
2023-02-06T07:04:50.347Z,12.90
2023-02-06T07:05:53.083Z,12.60
2023-02-06T07:06:50.346Z,12.90
2023-02-06T07:07:50.352Z,12.80
2023-02-06T07:08:50.343Z,12.80
2023-02-06T07:09:50.355Z,12.70
2023-02-06T07:10:50.342Z,12.70
2023-02-06T07:11:50.348Z,12.80
2023-02-06T07:12:50.341Z,12.80
2023-02-06T07:13:50.354Z,12.90
2023-02-06T07:14:50.339Z,12.90
2023-02-06T07:15:50.345Z,12.60
2023-02-06T07:16:50.343Z,12.70
2023-02-06T07:17:50.378Z,12.70
2023-02-06T07:18:50.336Z,12.80
2023-02-06T07:19:50.343Z,12.80
2023-02-06T07:20:50.341Z,12.90
2023-02-06T07:21:50.349Z,12.70
2023-02-06T07:22:50.379Z,12.90
2023-02-06T07:23:50.344Z,12.90
2023-02-06T07:24:50.332Z,12.99
2023-02-06T07:25:50.339Z,12.90
2023-02-06T07:26:50.338Z,12.80
2023-02-06T07:27:50.362Z,12.90
2023-02-06T07:28:50.351Z,12.80
2023-02-06T07:29:50.334Z,12.90
2023-02-06T07:30:50.382Z,12.80
2023-02-06T07:31:50.418Z,12.90
2023-02-06T07:32:50.329Z,12.99
2023-02-06T07:33:50.436Z,12.80
2023-02-06T07:34:50.329Z,12.80
2023-02-06T07:35:50.332Z,12.90
2023-02-06T07:36:50.325Z,12.99
2023-02-06T07:37:50.332Z,12.90
2023-02-06T07:38:50.321Z,12.80
2023-02-06T07:39:50.345Z,12.90
2023-02-06T07:40:50.323Z,12.70
2023-02-06T07:41:50.334Z,12.70
2023-02-06T07:42:50.326Z,12.70
2023-02-06T07:43:50.353Z,12.70
2023-02-06T07:44:50.332Z,12.80
2023-02-06T07:45:50.402Z,12.60
2023-02-06T07:46:50.319Z,12.80
2023-02-06T07:47:50.321Z,12.51
2023-02-06T07:48:50.315Z,12.70
2023-02-06T07:49:50.354Z,12.70
2023-02-06T07:50:50.313Z,12.60
2023-02-06T07:51:50.328Z,12.51
2023-02-06T07:52:50.316Z,12.51
2023-02-06T07:53:50.328Z,12.51
2023-02-06T07:54:50.321Z,12.70
2023-02-06T07:55:50.316Z,12.51
2023-02-06T07:56:50.308Z,12.60
2023-02-06T07:57:50.322Z,12.60
2023-02-06T07:58:50.310Z,12.60
2023-02-06T07:59:50.314Z,12.70
2023-02-06T08:00:50.416Z,12.70
2023-02-06T08:01:50.313Z,12.70
2023-02-06T08:02:50.304Z,12.70
2023-02-06T08:03:50.317Z,12.70
2023-02-06T08:04:50.307Z,12.80
2023-02-06T08:05:50.403Z,12.71
2023-02-06T08:06:50.306Z,12.51
2023-02-06T08:07:50.309Z,12.71
2023-02-06T08:08:50.303Z,12.61
2023-02-06T08:09:50.311Z,12.51
2023-02-06T08:10:50.310Z,12.51
2023-02-06T08:11:50.307Z,12.61
2023-02-06T08:12:50.306Z,12.70
2023-02-06T08:13:50.307Z,12.71
2023-02-06T08:14:50.298Z,12.60
2023-02-06T08:15:50.307Z,12.71
2023-02-06T08:16:50.354Z,12.51
2023-02-06T08:17:50.305Z,12.61
2023-02-06T08:18:50.300Z,12.80
2023-02-06T08:19:50.304Z,12.61
2023-02-06T08:20:50.296Z,12.60
2023-02-06T08:21:50.372Z,12.71
2023-02-06T08:22:50.296Z,12.51
2023-02-06T08:23:50.306Z,12.61
2023-02-06T08:24:50.292Z,12.61
2023-02-06T08:25:50.300Z,12.60
2023-02-06T08:26:50.300Z,12.61
2023-02-06T08:27:50.305Z,12.60
2023-02-06T08:28:50.288Z,12.71
2023-02-06T08:29:50.297Z,12.70
2023-02-06T08:30:50.379Z,12.51
2023-02-06T08:31:50.358Z,12.51
2023-02-06T08:32:50.286Z,12.51
2023-02-06T08:33:50.299Z,12.51
2023-02-06T08:34:50.291Z,12.51
2023-02-06T08:35:50.291Z,12.61
2023-02-06T08:36:50.285Z,12.51
2023-02-06T08:37:50.356Z,12.32
2023-02-06T08:38:50.286Z,12.32
2023-02-06T08:39:50.301Z,12.42
2023-02-06T08:40:50.283Z,12.32
2023-02-06T08:41:50.306Z,12.32
2023-02-06T08:42:50.322Z,12.42
2023-02-06T08:43:50.287Z,12.42
2023-02-06T08:44:50.283Z,12.51
2023-02-06T08:45:50.392Z,12.42
2023-02-06T08:46:56.222Z,12.42
2023-02-06T08:47:50.286Z,12.42
2023-02-06T08:48:50.280Z,12.71
2023-02-06T08:49:50.284Z,12.90
2023-02-06T08:50:50.281Z,12.61
2023-02-06T08:51:50.281Z,12.42
2023-02-06T08:52:50.278Z,12.42
2023-02-06T08:53:50.315Z,12.51
2023-02-06T08:54:50.277Z,12.42
2023-02-06T08:55:50.285Z,12.51
2023-02-06T08:56:50.274Z,12.42
2023-02-06T08:57:50.290Z,12.42
2023-02-06T08:58:50.286Z,12.51
2023-02-06T08:59:50.278Z,12.51
2023-02-06T09:00:50.280Z,12.71
2023-02-06T09:01:50.336Z,12.51
2023-02-06T09:02:50.330Z,12.61
2023-02-06T09:03:50.277Z,12.42
2023-02-06T09:04:50.276Z,12.61
2023-02-06T09:05:50.845Z,12.71
2023-02-06T09:06:50.270Z,12.51
2023-02-06T09:07:50.277Z,12.51
2023-02-06T09:08:50.272Z,12.61
2023-02-06T09:09:50.295Z,12.42
2023-02-06T09:10:50.268Z,12.42
2023-02-06T09:11:50.274Z,12.51
2023-02-06T09:12:50.275Z,12.42
2023-02-06T09:13:50.271Z,12.42
2023-02-06T09:14:50.267Z,12.42
2023-02-06T09:15:50.300Z,12.42
2023-02-06T09:16:50.263Z,12.42
2023-02-06T09:17:50.274Z,12.61
2023-02-06T09:18:50.260Z,12.42
2023-02-06T09:19:50.267Z,12.32
2023-02-06T09:20:50.259Z,12.61
2023-02-06T09:21:50.265Z,12.51
2023-02-06T09:22:50.255Z,12.51
2023-02-06T09:23:50.281Z,12.61
2023-02-06T09:24:50.253Z,12.51
2023-02-06T09:25:50.363Z,12.42
2023-02-06T09:27:00.122Z,12.51
2023-02-06T09:27:50.282Z,12.51
2023-02-06T09:28:50.251Z,12.61
2023-02-06T09:29:50.257Z,12.51
2023-02-06T09:30:50.294Z,12.51
2023-02-06T09:31:50.263Z,12.51
2023-02-06T09:32:50.247Z,12.13
2023-02-06T09:33:50.258Z,12.61
2023-02-06T09:34:50.308Z,12.23
2023-02-06T09:35:50.254Z,12.42
2023-02-06T09:36:50.245Z,12.13
2023-02-06T09:37:50.252Z,12.51
2023-02-06T09:38:50.245Z,12.23
2023-02-06T09:39:50.250Z,12.23
2023-02-06T09:40:50.243Z,12.13
2023-02-06T09:41:50.284Z,12.23
2023-02-06T09:42:50.242Z,12.32
2023-02-06T09:43:50.248Z,12.32
2023-02-06T09:44:50.242Z,12.32
2023-02-06T09:45:50.249Z,12.61
2023-02-06T09:46:50.240Z,12.32
2023-02-06T09:47:50.248Z,12.32
2023-02-06T09:48:50.240Z,12.32
2023-02-06T09:49:50.250Z,12.51
2023-02-06T09:50:50.236Z,12.42
2023-02-06T09:51:50.248Z,12.42
2023-02-06T09:52:50.244Z,12.32
2023-02-06T09:53:50.236Z,12.32
2023-02-06T09:54:50.262Z,12.32
2023-02-06T09:55:50.240Z,12.51
2023-02-06T09:56:50.243Z,12.03
2023-02-06T09:57:50.260Z,12.23
2023-02-06T09:58:50.247Z,12.32
2023-02-06T09:59:50.232Z,12.23
2023-02-06T10:00:50.240Z,12.23
2023-02-06T10:01:50.342Z,12.32
2023-02-06T10:02:50.257Z,12.23
2023-02-06T10:03:50.267Z,12.23
2023-02-06T10:04:50.252Z,12.42
2023-02-06T10:05:50.232Z,12.51
2023-02-06T10:06:50.235Z,12.23
2023-02-06T10:07:50.230Z,12.13
2023-02-06T10:08:50.240Z,12.23
2023-02-06T10:09:50.227Z,12.23
2023-02-06T10:10:50.245Z,12.23
2023-02-06T10:11:50.224Z,12.32
2023-02-06T10:12:50.262Z,12.32
2023-02-06T10:13:50.261Z,12.13
2023-02-06T10:14:50.242Z,12.13
2023-02-06T10:15:50.298Z,12.32
2023-02-06T10:16:50.230Z,12.13
2023-02-06T10:17:50.231Z,12.03
2023-02-06T10:18:50.242Z,12.32
2023-02-06T10:19:50.224Z,12.32
2023-02-06T10:20:50.243Z,12.23
2023-02-06T10:21:50.233Z,12.23
2023-02-06T10:22:50.236Z,12.32
2023-02-06T10:23:50.220Z,12.32
2023-02-06T10:24:50.239Z,12.32
2023-02-06T10:25:50.226Z,12.32
2023-02-06T10:26:50.227Z,12.32
2023-02-06T10:27:50.310Z,12.23
2023-02-06T10:28:50.232Z,12.32
2023-02-06T10:29:50.341Z,12.13
2023-02-06T10:30:50.397Z,12.03
2023-02-06T10:31:50.337Z,12.03
2023-02-06T10:32:50.227Z,12.03
2023-02-06T10:33:50.237Z,12.03
2023-02-06T10:34:50.226Z,12.13
2023-02-06T10:35:50.231Z,12.13
2023-02-06T10:36:50.237Z,12.03
2023-02-06T10:37:50.225Z,12.03
2023-02-06T10:38:50.234Z,12.03
2023-02-06T10:39:50.218Z,12.13
2023-02-06T10:40:50.224Z,12.03
2023-02-06T10:41:50.231Z,12.13
2023-02-06T10:42:50.225Z,12.13
2023-02-06T10:43:50.230Z,12.13
2023-02-06T10:44:51.506Z,12.23
2023-02-06T10:45:50.296Z,12.51
2023-02-06T10:46:50.245Z,12.23
2023-02-06T10:47:50.214Z,12.03
2023-02-06T10:48:50.223Z,12.03
2023-02-06T10:49:50.232Z,12.13
2023-02-06T10:50:50.223Z,12.23
2023-02-06T10:51:50.212Z,12.51
2023-02-06T10:52:50.220Z,12.32
2023-02-06T10:53:50.238Z,12.03
2023-02-06T10:54:50.233Z,12.13
2023-02-06T10:55:50.748Z,12.03
2023-02-06T10:56:50.219Z,12.03
2023-02-06T10:57:50.218Z,12.23
2023-02-06T10:58:50.218Z,12.23
2023-02-06T10:59:51.366Z,12.03
2023-02-06T11:00:50.318Z,12.23
2023-02-06T11:01:50.285Z,12.23
2023-02-06T11:02:58.145Z,12.13
2023-02-06T11:03:50.211Z,12.13
2023-02-06T11:04:50.219Z,12.13
2023-02-06T11:05:50.210Z,12.13
2023-02-06T11:06:50.221Z,11.64
2023-02-06T11:07:50.209Z,11.74
2023-02-06T11:08:50.213Z,11.74
2023-02-06T11:09:50.216Z,11.64
2023-02-06T11:10:50.216Z,11.64
2023-02-06T11:11:50.201Z,11.64
2023-02-06T11:12:50.215Z,11.74
2023-02-06T11:13:50.211Z,11.64
2023-02-06T11:14:50.228Z,11.64
2023-02-06T11:15:50.200Z,11.74
2023-02-06T11:16:50.208Z,11.64
2023-02-06T11:17:50.234Z,11.74
2023-02-06T11:18:50.216Z,11.93
2023-02-06T11:19:50.208Z,11.74
2023-02-06T11:20:50.210Z,11.74
2023-02-06T11:21:50.199Z,11.74
2023-02-06T11:22:53.128Z,11.74
2023-02-06T11:23:50.197Z,11.74
2023-02-06T11:24:50.204Z,11.74
2023-02-06T11:25:50.196Z,11.83
2023-02-06T11:26:50.205Z,11.84
2023-02-06T11:27:50.251Z,11.74
2023-02-06T11:28:50.203Z,11.84
2023-02-06T11:29:52.099Z,11.74
2023-02-06T11:30:50.249Z,11.74
2023-02-06T11:31:50.293Z,11.84
2023-02-06T11:33:03.625Z,11.74
2023-02-06T11:33:50.231Z,11.84
2023-02-06T11:34:50.211Z,12.43
2023-02-06T11:35:50.193Z,12.04
2023-02-06T11:36:50.204Z,11.74
2023-02-06T11:37:50.192Z,15.34
2023-02-06T11:38:50.199Z,12.91
2023-02-06T11:39:50.191Z,12.13
2023-02-06T11:40:50.199Z,11.65
2023-02-06T11:41:50.190Z,11.45
2023-02-06T11:42:50.197Z,11.65
2023-02-06T11:43:50.245Z,11.36
2023-02-06T11:44:50.197Z,11.36
2023-02-06T11:45:50.234Z,11.45
2023-02-06T11:46:50.195Z,11.26
2023-02-06T11:47:50.189Z,11.16
2023-02-06T11:48:50.199Z,11.36
2023-02-06T11:49:50.218Z,11.36
2023-02-06T11:50:50.195Z,11.07
2023-02-06T11:51:50.187Z,11.74
2023-02-06T11:52:50.194Z,11.26
2023-02-06T11:53:50.186Z,10.87
2023-02-06T11:54:50.195Z,10.87
2023-02-06T11:55:50.185Z,10.87
2023-02-06T11:56:50.193Z,10.68
2023-02-06T11:57:50.186Z,10.68
2023-02-06T11:58:50.192Z,10.58
2023-02-06T11:59:50.184Z,10.77
2023-02-06T12:00:50.191Z,10.58
2023-02-06T12:01:50.244Z,10.38
2023-02-06T12:02:50.189Z,10.58
2023-02-06T12:03:50.186Z,10.68
2023-02-06T12:04:50.194Z,10.68
2023-02-06T12:05:50.295Z,10.48
2023-02-06T12:06:50.193Z,10.58
2023-02-06T12:07:50.192Z,10.38
2023-02-06T12:08:50.190Z,10.38
2023-02-06T12:09:50.181Z,10.48
2023-02-06T12:10:50.187Z,10.29
2023-02-06T12:11:50.182Z,10.38
2023-02-06T12:12:50.191Z,10.10
2023-02-06T12:13:50.180Z,10.38
2023-02-06T12:14:50.193Z,10.19
2023-02-06T12:15:50.555Z,10.19
2023-02-06T12:16:50.261Z,10.19
2023-02-06T12:17:50.179Z,11.45
2023-02-06T12:18:50.190Z,10.68
2023-02-06T12:19:50.180Z,10.38
2023-02-06T12:20:50.235Z,10.10
2023-02-06T12:21:50.256Z,10.29
2023-02-06T12:22:50.184Z,10.10
2023-02-06T12:23:50.179Z,10.00
2023-02-06T12:24:50.185Z,10.10
2023-02-06T12:25:50.179Z,10.10
2023-02-06T12:26:50.184Z,10.10
2023-02-06T12:27:50.213Z,10.10
2023-02-06T12:28:50.183Z,10.10
2023-02-06T12:29:50.182Z,10.19
2023-02-06T12:30:50.235Z,10.19
2023-02-06T12:31:50.440Z,10.38
2023-02-06T12:32:50.187Z,10.38
2023-02-06T12:33:50.172Z,10.38
2023-02-06T12:34:50.179Z,10.58
2023-02-06T12:35:50.171Z,11.07
2023-02-06T12:36:50.176Z,11.74
2023-02-06T12:37:50.197Z,12.62
2023-02-06T12:38:50.177Z,11.55
2023-02-06T12:39:50.168Z,10.77
2023-02-06T12:40:50.174Z,10.48
2023-02-06T12:41:50.166Z,10.00
2023-02-06T12:42:50.174Z,10.10
2023-02-06T12:43:50.165Z,10.38
2023-02-06T12:44:50.173Z,10.10
2023-02-06T12:45:50.261Z,10.19
2023-02-06T12:46:50.171Z,10.29
2023-02-06T12:47:50.164Z,10.19
2023-02-06T12:48:50.173Z,10.10
2023-02-06T12:49:50.165Z,10.10
2023-02-06T12:50:50.172Z,10.10
2023-02-06T12:51:50.164Z,10.19
2023-02-06T12:52:50.205Z,10.19